sensor_id;sensor_type;location;lat;lon;timestamp;P1;durP1;ratioP1;P2;durP2;ratioP2
5718;SDS011;2884;47.734;9.244;2023-05-14T00:02:21;7.33;;;6.83;;
5718;SDS011;2884;47.734;9.244;2023-05-14T00:04:46;9.63;;;8.63;;
5718;SDS011;2884;47.734;9.244;2023-05-14T00:07:12;10.50;;;6.70;;
5718;SDS011;2884;47.734;9.244;2023-05-14T00:09:37;8.13;;;7.33;;
5718;SDS011;2884;47.734;9.244;2023-05-14T00:12:03;8.20;;;7.50;;
5718;SDS011;2884;47.734;9.244;2023-05-14T00:14:29;8.67;;;7.63;;
5718;SDS011;2884;47.734;9.244;2023-05-14T00:16:55;7.17;;;6.57;;
5718;SDS011;2884;47.734;9.244;2023-05-14T00:19:21;16.23;;;8.63;;
5718;SDS011;2884;47.734;9.244;2023-05-14T00:21:46;8.80;;;8.00;;
5718;SDS011;2884;47.734;9.244;2023-05-14T00:24:12;7.87;;;7.17;;
5718;SDS011;2884;47.734;9.244;2023-05-14T00:26:38;9.27;;;8.37;;
5718;SDS011;2884;47.734;9.244;2023-05-14T00:29:04;7.90;;;7.20;;
5718;SDS011;2884;47.734;9.244;2023-05-14T00:31:29;7.87;;;7.17;;
5718;SDS011;2884;47.734;9.244;2023-05-14T00:33:55;7.87;;;7.20;;
5718;SDS011;2884;47.734;9.244;2023-05-14T00:36:20;9.60;;;8.07;;
5718;SDS011;2884;47.734;9.244;2023-05-14T00:38:46;9.87;;;8.10;;
5718;SDS011;2884;47.734;9.244;2023-05-14T00:41:11;9.30;;;8.40;;
5718;SDS011;2884;47.734;9.244;2023-05-14T00:43:37;8.30;;;7.60;;
5718;SDS011;2884;47.734;9.244;2023-05-14T00:46:02;8.33;;;7.63;;
5718;SDS011;2884;47.734;9.244;2023-05-14T00:48:28;8.70;;;7.90;;
5718;SDS011;2884;47.734;9.244;2023-05-14T00:50:54;8.97;;;8.07;;
5718;SDS011;2884;47.734;9.244;2023-05-14T00:53:19;7.40;;;6.57;;
5718;SDS011;2884;47.734;9.244;2023-05-14T00:55:45;8.37;;;7.50;;
5718;SDS011;2884;47.734;9.244;2023-05-14T00:58:13;8.90;;;8.07;;
5718;SDS011;2884;47.734;9.244;2023-05-14T01:00:39;9.83;;;7.57;;
5718;SDS011;2884;47.734;9.244;2023-05-14T01:03:06;7.90;;;7.20;;
5718;SDS011;2884;47.734;9.244;2023-05-14T01:05:38;9.20;;;8.17;;
5718;SDS011;2884;47.734;9.244;2023-05-14T01:08:12;8.60;;;7.80;;
5718;SDS011;2884;47.734;9.244;2023-05-14T01:17:02;8.00;;;7.20;;
5718;SDS011;2884;47.734;9.244;2023-05-14T01:19:33;7.13;;;6.53;;
5718;SDS011;2884;47.734;9.244;2023-05-14T01:22:01;7.60;;;6.90;;
5718;SDS011;2884;47.734;9.244;2023-05-14T01:24:27;8.10;;;7.30;;
5718;SDS011;2884;47.734;9.244;2023-05-14T01:26:54;7.67;;;6.97;;
5718;SDS011;2884;47.734;9.244;2023-05-14T01:29:42;6.73;;;6.13;;
5718;SDS011;2884;47.734;9.244;2023-05-14T01:32:30;7.40;;;6.80;;
5718;SDS011;2884;47.734;9.244;2023-05-14T01:34:56;8.70;;;7.90;;
5718;SDS011;2884;47.734;9.244;2023-05-14T01:37:22;8.47;;;7.70;;
5718;SDS011;2884;47.734;9.244;2023-05-14T01:39:49;8.83;;;7.17;;
5718;SDS011;2884;47.734;9.244;2023-05-14T01:42:15;7.00;;;6.40;;
5718;SDS011;2884;47.734;9.244;2023-05-14T01:44:41;7.60;;;7.00;;
5718;SDS011;2884;47.734;9.244;2023-05-14T01:47:07;8.70;;;7.40;;
5718;SDS011;2884;47.734;9.244;2023-05-14T01:49:32;9.80;;;8.77;;
5718;SDS011;2884;47.734;9.244;2023-05-14T01:51:58;7.57;;;6.87;;
5718;SDS011;2884;47.734;9.244;2023-05-14T01:54:24;7.97;;;7.37;;
5718;SDS011;2884;47.734;9.244;2023-05-14T01:56:52;8.40;;;7.70;;
5718;SDS011;2884;47.734;9.244;2023-05-14T01:59:18;8.20;;;7.43;;
5718;SDS011;2884;47.734;9.244;2023-05-14T02:01:43;9.23;;;6.80;;
5718;SDS011;2884;47.734;9.244;2023-05-14T02:04:12;8.53;;;7.73;;
5718;SDS011;2884;47.734;9.244;2023-05-14T02:06:37;7.90;;;7.20;;
5718;SDS011;2884;47.734;9.244;2023-05-14T02:09:03;7.67;;;7.07;;
5718;SDS011;2884;47.734;9.244;2023-05-14T02:11:29;6.77;;;6.20;;
5718;SDS011;2884;47.734;9.244;2023-05-14T02:13:54;7.00;;;6.30;;
5718;SDS011;2884;47.734;9.244;2023-05-14T02:16:23;7.33;;;6.73;;
5718;SDS011;2884;47.734;9.244;2023-05-14T02:18:48;7.60;;;6.90;;
5718;SDS011;2884;47.734;9.244;2023-05-14T02:21:14;7.33;;;6.33;;
5718;SDS011;2884;47.734;9.244;2023-05-14T02:23:40;7.63;;;7.00;;
5718;SDS011;2884;47.734;9.244;2023-05-14T02:26:05;7.90;;;7.13;;
5718;SDS011;2884;47.734;9.244;2023-05-14T02:28:32;6.97;;;6.47;;
5718;SDS011;2884;47.734;9.244;2023-05-14T02:30:58;7.53;;;6.93;;
5718;SDS011;2884;47.734;9.244;2023-05-14T02:33:25;7.57;;;6.90;;
5718;SDS011;2884;47.734;9.244;2023-05-14T02:35:50;8.10;;;7.30;;
5718;SDS011;2884;47.734;9.244;2023-05-14T02:38:16;7.70;;;7.10;;
5718;SDS011;2884;47.734;9.244;2023-05-14T02:40:41;8.27;;;6.33;;
5718;SDS011;2884;47.734;9.244;2023-05-14T02:43:07;7.23;;;6.63;;
5718;SDS011;2884;47.734;9.244;2023-05-14T02:45:33;6.77;;;6.07;;
5718;SDS011;2884;47.734;9.244;2023-05-14T02:47:58;6.60;;;6.10;;
5718;SDS011;2884;47.734;9.244;2023-05-14T02:50:23;6.30;;;5.90;;
5718;SDS011;2884;47.734;9.244;2023-05-14T02:52:49;6.93;;;6.33;;
5718;SDS011;2884;47.734;9.244;2023-05-14T02:55:15;7.43;;;6.83;;
5718;SDS011;2884;47.734;9.244;2023-05-14T02:57:40;7.90;;;7.10;;
5718;SDS011;2884;47.734;9.244;2023-05-14T03:00:06;10.60;;;6.77;;
5718;SDS011;2884;47.734;9.244;2023-05-14T03:02:33;6.97;;;6.47;;
5718;SDS011;2884;47.734;9.244;2023-05-14T03:05:00;6.60;;;6.10;;
5718;SDS011;2884;47.734;9.244;2023-05-14T03:07:26;7.03;;;6.43;;
5718;SDS011;2884;47.734;9.244;2023-05-14T03:09:51;10.20;;;7.00;;
5718;SDS011;2884;47.734;9.244;2023-05-14T03:12:17;7.13;;;6.53;;
5718;SDS011;2884;47.734;9.244;2023-05-14T03:14:42;6.47;;;6.07;;
5718;SDS011;2884;47.734;9.244;2023-05-14T03:20:32;7.33;;;6.73;;
5718;SDS011;2884;47.734;9.244;2023-05-14T03:22:58;7.67;;;6.23;;
5718;SDS011;2884;47.734;9.244;2023-05-14T03:25:23;6.70;;;6.20;;
5718;SDS011;2884;47.734;9.244;2023-05-14T03:27:49;6.27;;;5.80;;
5718;SDS011;2884;47.734;9.244;2023-05-14T03:30:15;7.10;;;6.60;;
5718;SDS011;2884;47.734;9.244;2023-05-14T03:32:40;6.73;;;6.20;;
5718;SDS011;2884;47.734;9.244;2023-05-14T03:35:07;6.87;;;5.80;;
5718;SDS011;2884;47.734;9.244;2023-05-14T03:37:32;7.27;;;6.50;;
5718;SDS011;2884;47.734;9.244;2023-05-14T03:39:58;7.20;;;6.60;;
5718;SDS011;2884;47.734;9.244;2023-05-14T03:42:23;5.63;;;5.23;;
5718;SDS011;2884;47.734;9.244;2023-05-14T03:44:49;6.70;;;6.20;;
5718;SDS011;2884;47.734;9.244;2023-05-14T03:47:16;6.47;;;5.97;;
5718;SDS011;2884;47.734;9.244;2023-05-14T03:49:41;7.00;;;6.50;;
5718;SDS011;2884;47.734;9.244;2023-05-14T03:52:07;7.10;;;6.60;;
5718;SDS011;2884;47.734;9.244;2023-05-14T03:54:33;6.67;;;6.17;;
5718;SDS011;2884;47.734;9.244;2023-05-14T03:56:58;6.40;;;6.00;;
5718;SDS011;2884;47.734;9.244;2023-05-14T03:59:24;6.07;;;5.67;;
5718;SDS011;2884;47.734;9.244;2023-05-14T04:01:49;6.60;;;6.00;;
5718;SDS011;2884;47.734;9.244;2023-05-14T04:04:15;7.50;;;6.90;;
5718;SDS011;2884;47.734;9.244;2023-05-14T04:06:40;8.30;;;7.60;;
5718;SDS011;2884;47.734;9.244;2023-05-14T04:09:06;8.43;;;7.67;;
5718;SDS011;2884;47.734;9.244;2023-05-14T04:11:31;7.77;;;7.17;;
5718;SDS011;2884;47.734;9.244;2023-05-14T04:13:57;8.60;;;7.90;;
5718;SDS011;2884;47.734;9.244;2023-05-14T04:16:22;8.40;;;7.70;;
5718;SDS011;2884;47.734;9.244;2023-05-14T04:18:48;9.03;;;8.13;;
5718;SDS011;2884;47.734;9.244;2023-05-14T04:21:14;8.00;;;7.30;;
5718;SDS011;2884;47.734;9.244;2023-05-14T04:23:39;8.97;;;8.10;;
5718;SDS011;2884;47.734;9.244;2023-05-14T04:26:05;9.77;;;8.87;;
5718;SDS011;2884;47.734;9.244;2023-05-14T04:28:31;8.23;;;7.50;;
5718;SDS011;2884;47.734;9.244;2023-05-14T04:30:56;9.57;;;8.67;;
5718;SDS011;2884;47.734;9.244;2023-05-14T04:33:22;8.40;;;7.70;;
5718;SDS011;2884;47.734;9.244;2023-05-14T04:35:48;9.40;;;8.50;;
5718;SDS011;2884;47.734;9.244;2023-05-14T04:38:13;9.17;;;8.27;;
5718;SDS011;2884;47.734;9.244;2023-05-14T04:40:39;8.20;;;7.40;;
5718;SDS011;2884;47.734;9.244;2023-05-14T04:43:06;9.80;;;8.90;;
5718;SDS011;2884;47.734;9.244;2023-05-14T04:45:32;9.47;;;8.57;;
5718;SDS011;2884;47.734;9.244;2023-05-14T04:47:57;8.80;;;8.13;;
5718;SDS011;2884;47.734;9.244;2023-05-14T04:50:24;8.60;;;7.90;;
5718;SDS011;2884;47.734;9.244;2023-05-14T04:52:49;8.67;;;7.90;;
5718;SDS011;2884;47.734;9.244;2023-05-14T04:55:15;8.57;;;7.87;;
5718;SDS011;2884;47.734;9.244;2023-05-14T04:57:40;8.57;;;7.97;;
5718;SDS011;2884;47.734;9.244;2023-05-14T05:00:06;9.33;;;8.53;;
5718;SDS011;2884;47.734;9.244;2023-05-14T05:02:33;9.37;;;8.57;;
5718;SDS011;2884;47.734;9.244;2023-05-14T05:04:59;8.53;;;7.73;;
5718;SDS011;2884;47.734;9.244;2023-05-14T05:07:24;9.33;;;8.43;;
5718;SDS011;2884;47.734;9.244;2023-05-14T05:09:50;8.70;;;7.90;;
5718;SDS011;2884;47.734;9.244;2023-05-14T05:12:16;9.17;;;8.27;;
5718;SDS011;2884;47.734;9.244;2023-05-14T05:14:41;9.77;;;8.90;;
5718;SDS011;2884;47.734;9.244;2023-05-14T05:17:07;10.03;;;9.03;;
5718;SDS011;2884;47.734;9.244;2023-05-14T05:19:32;11.70;;;9.07;;
5718;SDS011;2884;47.734;9.244;2023-05-14T05:21:58;9.20;;;8.30;;
5718;SDS011;2884;47.734;9.244;2023-05-14T05:24:23;8.93;;;8.13;;
5718;SDS011;2884;47.734;9.244;2023-05-14T05:26:49;10.10;;;8.50;;
5718;SDS011;2884;47.734;9.244;2023-05-14T05:29:16;9.03;;;8.20;;
5718;SDS011;2884;47.734;9.244;2023-05-14T05:31:41;10.50;;;9.50;;
5718;SDS011;2884;47.734;9.244;2023-05-14T05:34:07;9.90;;;9.00;;
5718;SDS011;2884;47.734;9.244;2023-05-14T05:36:32;10.83;;;8.97;;
5718;SDS011;2884;47.734;9.244;2023-05-14T05:38:58;10.27;;;9.27;;
5718;SDS011;2884;47.734;9.244;2023-05-14T05:41:24;9.57;;;8.67;;
5718;SDS011;2884;47.734;9.244;2023-05-14T05:43:50;10.63;;;9.63;;
5718;SDS011;2884;47.734;9.244;2023-05-14T05:46:16;10.67;;;9.50;;
5718;SDS011;2884;47.734;9.244;2023-05-14T05:48:41;11.73;;;10.63;;
5718;SDS011;2884;47.734;9.244;2023-05-14T05:51:07;12.17;;;9.80;;
5718;SDS011;2884;47.734;9.244;2023-05-14T05:53:32;9.43;;;8.53;;
5718;SDS011;2884;47.734;9.244;2023-05-14T05:55:58;9.20;;;8.40;;
5718;SDS011;2884;47.734;9.244;2023-05-14T05:58:23;12.00;;;9.87;;
5718;SDS011;2884;47.734;9.244;2023-05-14T06:00:49;10.67;;;9.60;;
5718;SDS011;2884;47.734;9.244;2023-05-14T06:03:15;10.00;;;9.00;;
5718;SDS011;2884;47.734;9.244;2023-05-14T06:05:40;11.33;;;10.23;;
5718;SDS011;2884;47.734;9.244;2023-05-14T06:08:05;11.43;;;10.30;;
5718;SDS011;2884;47.734;9.244;2023-05-14T06:10:32;10.43;;;9.43;;
5718;SDS011;2884;47.734;9.244;2023-05-14T06:12:58;12.37;;;10.60;;
5718;SDS011;2884;47.734;9.244;2023-05-14T06:15:23;10.93;;;9.83;;
5718;SDS011;2884;47.734;9.244;2023-05-14T06:17:49;11.60;;;10.50;;
5718;SDS011;2884;47.734;9.244;2023-05-14T06:20:15;10.33;;;9.40;;
5718;SDS011;2884;47.734;9.244;2023-05-14T06:22:40;12.43;;;11.13;;
5718;SDS011;2884;47.734;9.244;2023-05-14T06:25:06;10.00;;;8.60;;
5718;SDS011;2884;47.734;9.244;2023-05-14T06:27:32;10.73;;;9.63;;
5718;SDS011;2884;47.734;9.244;2023-05-14T06:29:57;10.97;;;9.87;;
5718;SDS011;2884;47.734;9.244;2023-05-14T06:32:23;10.70;;;9.60;;
5718;SDS011;2884;47.734;9.244;2023-05-14T06:34:48;11.43;;;9.83;;
5718;SDS011;2884;47.734;9.244;2023-05-14T06:37:14;12.43;;;10.13;;
5718;SDS011;2884;47.734;9.244;2023-05-14T06:39:40;10.43;;;9.37;;
5718;SDS011;2884;47.734;9.244;2023-05-14T06:42:12;9.97;;;8.97;;
5718;SDS011;2884;47.734;9.244;2023-05-14T06:44:37;10.33;;;9.30;;
5718;SDS011;2884;47.734;9.244;2023-05-14T06:47:03;10.30;;;9.23;;
5718;SDS011;2884;47.734;9.244;2023-05-14T06:49:30;10.47;;;9.40;;
5718;SDS011;2884;47.734;9.244;2023-05-14T06:51:58;12.33;;;9.33;;
5718;SDS011;2884;47.734;9.244;2023-05-14T06:54:28;12.17;;;8.80;;
5718;SDS011;2884;47.734;9.244;2023-05-14T06:56:54;10.17;;;9.17;;
5718;SDS011;2884;47.734;9.244;2023-05-14T06:59:19;9.80;;;8.80;;
5718;SDS011;2884;47.734;9.244;2023-05-14T07:01:45;10.83;;;9.73;;
5718;SDS011;2884;47.734;9.244;2023-05-14T07:04:10;10.30;;;9.30;;
5718;SDS011;2884;47.734;9.244;2023-05-14T07:06:36;10.00;;;9.10;;
5718;SDS011;2884;47.734;9.244;2023-05-14T07:09:02;10.27;;;9.27;;
5718;SDS011;2884;47.734;9.244;2023-05-14T07:11:27;10.40;;;9.40;;
5718;SDS011;2884;47.734;9.244;2023-05-14T07:13:53;9.47;;;8.50;;
5718;SDS011;2884;47.734;9.244;2023-05-14T07:16:19;9.60;;;8.60;;
5718;SDS011;2884;47.734;9.244;2023-05-14T07:18:44;9.47;;;8.00;;
5718;SDS011;2884;47.734;9.244;2023-05-14T07:21:10;8.50;;;7.70;;
5718;SDS011;2884;47.734;9.244;2023-05-14T07:23:36;8.30;;;7.50;;
5718;SDS011;2884;47.734;9.244;2023-05-14T07:26:05;8.37;;;7.67;;
5718;SDS011;2884;47.734;9.244;2023-05-14T07:28:31;8.23;;;7.43;;
5718;SDS011;2884;47.734;9.244;2023-05-14T07:30:57;6.63;;;6.03;;
5718;SDS011;2884;47.734;9.244;2023-05-14T07:33:23;8.90;;;6.87;;
5718;SDS011;2884;47.734;9.244;2023-05-14T07:35:49;7.33;;;6.63;;
5718;SDS011;2884;47.734;9.244;2023-05-14T07:38:15;7.23;;;6.63;;
5718;SDS011;2884;47.734;9.244;2023-05-14T07:40:41;7.30;;;6.70;;
5718;SDS011;2884;47.734;9.244;2023-05-14T07:43:06;6.30;;;5.80;;
5718;SDS011;2884;47.734;9.244;2023-05-14T07:45:32;6.73;;;6.13;;
5718;SDS011;2884;47.734;9.244;2023-05-14T07:47:57;7.53;;;6.03;;
5718;SDS011;2884;47.734;9.244;2023-05-14T07:50:23;6.50;;;5.90;;
5718;SDS011;2884;47.734;9.244;2023-05-14T07:52:49;5.90;;;5.50;;
5718;SDS011;2884;47.734;9.244;2023-05-14T07:55:15;7.50;;;6.27;;
5718;SDS011;2884;47.734;9.244;2023-05-14T07:57:41;6.50;;;5.90;;
5718;SDS011;2884;47.734;9.244;2023-05-14T08:00:06;6.53;;;6.03;;
5718;SDS011;2884;47.734;9.244;2023-05-14T08:02:32;8.40;;;5.80;;
5718;SDS011;2884;47.734;9.244;2023-05-14T08:04:58;7.40;;;6.80;;
5718;SDS011;2884;47.734;9.244;2023-05-14T08:07:24;6.83;;;6.23;;
5718;SDS011;2884;47.734;9.244;2023-05-14T08:09:49;6.97;;;6.37;;
5718;SDS011;2884;47.734;9.244;2023-05-14T08:12:15;7.00;;;6.40;;
5718;SDS011;2884;47.734;9.244;2023-05-14T08:14:40;7.10;;;6.40;;
5718;SDS011;2884;47.734;9.244;2023-05-14T08:17:06;7.80;;;7.10;;
5718;SDS011;2884;47.734;9.244;2023-05-14T08:19:31;10.67;;;8.07;;
5718;SDS011;2884;47.734;9.244;2023-05-14T08:21:57;8.30;;;7.50;;
5718;SDS011;2884;47.734;9.244;2023-05-14T08:24:23;8.40;;;7.60;;
5718;SDS011;2884;47.734;9.244;2023-05-14T08:26:48;9.13;;;8.23;;
5718;SDS011;2884;47.734;9.244;2023-05-14T08:29:14;7.83;;;6.77;;
5718;SDS011;2884;47.734;9.244;2023-05-14T08:31:39;9.20;;;8.40;;
5718;SDS011;2884;47.734;9.244;2023-05-14T08:34:08;8.80;;;7.80;;
5718;SDS011;2884;47.734;9.244;2023-05-14T08:36:33;7.83;;;7.00;;
5718;SDS011;2884;47.734;9.244;2023-05-14T08:38:59;8.03;;;7.27;;
5718;SDS011;2884;47.734;9.244;2023-05-14T08:41:24;8.37;;;7.57;;
5718;SDS011;2884;47.734;9.244;2023-05-14T08:46:33;11.97;;;8.40;;
5718;SDS011;2884;47.734;9.244;2023-05-14T08:51:57;10.67;;;8.30;;
5718;SDS011;2884;47.734;9.244;2023-05-14T08:54:24;8.43;;;7.50;;
5718;SDS011;2884;47.734;9.244;2023-05-14T08:56:51;8.47;;;7.67;;
5718;SDS011;2884;47.734;9.244;2023-05-14T08:59:17;7.97;;;7.17;;
5718;SDS011;2884;47.734;9.244;2023-05-14T09:01:45;8.57;;;7.77;;
5718;SDS011;2884;47.734;9.244;2023-05-14T09:04:12;7.87;;;7.17;;
5718;SDS011;2884;47.734;9.244;2023-05-14T09:06:39;11.10;;;7.30;;
5718;SDS011;2884;47.734;9.244;2023-05-14T09:09:06;8.30;;;7.50;;
5718;SDS011;2884;47.734;9.244;2023-05-14T09:11:32;9.20;;;8.40;;
5718;SDS011;2884;47.734;9.244;2023-05-14T09:13:57;9.60;;;8.60;;
5718;SDS011;2884;47.734;9.244;2023-05-14T09:16:24;9.47;;;8.30;;
5718;SDS011;2884;47.734;9.244;2023-05-14T09:18:50;8.43;;;7.60;;
5718;SDS011;2884;47.734;9.244;2023-05-14T09:21:16;15.20;;;8.53;;
5718;SDS011;2884;47.734;9.244;2023-05-14T09:23:42;10.13;;;8.20;;
5718;SDS011;2884;47.734;9.244;2023-05-14T09:26:08;9.87;;;8.10;;
5718;SDS011;2884;47.734;9.244;2023-05-14T09:28:34;10.53;;;8.30;;
5718;SDS011;2884;47.734;9.244;2023-05-14T09:31:01;9.07;;;7.20;;
5718;SDS011;2884;47.734;9.244;2023-05-14T09:33:27;8.60;;;7.77;;
5718;SDS011;2884;47.734;9.244;2023-05-14T09:35:57;9.97;;;8.40;;
5718;SDS011;2884;47.734;9.244;2023-05-14T09:38:27;8.03;;;7.23;;
5718;SDS011;2884;47.734;9.244;2023-05-14T09:40:59;7.93;;;7.13;;
5718;SDS011;2884;47.734;9.244;2023-05-14T09:43:25;9.00;;;7.63;;
5718;SDS011;2884;47.734;9.244;2023-05-14T09:46:09;8.73;;;6.83;;
5718;SDS011;2884;47.734;9.244;2023-05-14T09:48:35;7.87;;;7.07;;
5718;SDS011;2884;47.734;9.244;2023-05-14T09:51:00;9.97;;;7.10;;
5718;SDS011;2884;47.734;9.244;2023-05-14T09:53:26;7.80;;;7.07;;
5718;SDS011;2884;47.734;9.244;2023-05-14T09:55:51;8.40;;;7.03;;
5718;SDS011;2884;47.734;9.244;2023-05-14T09:58:17;8.17;;;7.07;;
5718;SDS011;2884;47.734;9.244;2023-05-14T10:00:43;8.60;;;7.70;;
5718;SDS011;2884;47.734;9.244;2023-05-14T10:03:11;9.90;;;7.20;;
5718;SDS011;2884;47.734;9.244;2023-05-14T10:05:38;7.60;;;6.80;;
5718;SDS011;2884;47.734;9.244;2023-05-14T10:08:08;7.70;;;7.00;;
5718;SDS011;2884;47.734;9.244;2023-05-14T10:10:42;11.30;;;6.80;;
5718;SDS011;2884;47.734;9.244;2023-05-14T10:13:14;9.93;;;6.77;;
5718;SDS011;2884;47.734;9.244;2023-05-14T10:15:42;11.77;;;7.30;;
5718;SDS011;2884;47.734;9.244;2023-05-14T10:18:41;6.87;;;6.17;;
5718;SDS011;2884;47.734;9.244;2023-05-14T10:21:08;6.53;;;5.93;;
5718;SDS011;2884;47.734;9.244;2023-05-14T10:23:35;6.73;;;6.13;;
5718;SDS011;2884;47.734;9.244;2023-05-14T10:26:02;7.20;;;5.90;;
5718;SDS011;2884;47.734;9.244;2023-05-14T10:28:28;8.63;;;6.30;;
5718;SDS011;2884;47.734;9.244;2023-05-14T10:30:54;7.90;;;6.43;;
5718;SDS011;2884;47.734;9.244;2023-05-14T10:33:20;7.30;;;6.60;;
5718;SDS011;2884;47.734;9.244;2023-05-14T10:36:04;8.10;;;7.10;;
5718;SDS011;2884;47.734;9.244;2023-05-14T10:38:31;9.23;;;6.77;;
5718;SDS011;2884;47.734;9.244;2023-05-14T10:40:59;10.90;;;6.10;;
5718;SDS011;2884;47.734;9.244;2023-05-14T10:43:26;7.93;;;6.70;;
5718;SDS011;2884;47.734;9.244;2023-05-14T10:45:58;6.30;;;5.67;;
5718;SDS011;2884;47.734;9.244;2023-05-14T10:48:25;7.57;;;6.07;;
5718;SDS011;2884;47.734;9.244;2023-05-14T10:50:51;6.57;;;5.87;;
5718;SDS011;2884;47.734;9.244;2023-05-14T10:53:17;6.50;;;5.67;;
5718;SDS011;2884;47.734;9.244;2023-05-14T10:55:43;7.10;;;5.03;;
5718;SDS011;2884;47.734;9.244;2023-05-14T10:58:09;6.60;;;6.00;;
5718;SDS011;2884;47.734;9.244;2023-05-14T11:00:35;5.47;;;4.97;;
5718;SDS011;2884;47.734;9.244;2023-05-14T11:03:05;10.80;;;5.63;;
5718;SDS011;2884;47.734;9.244;2023-05-14T11:05:31;5.57;;;5.03;;
5718;SDS011;2884;47.734;9.244;2023-05-14T11:07:58;6.63;;;5.97;;
5718;SDS011;2884;47.734;9.244;2023-05-14T11:10:24;6.63;;;5.97;;
5718;SDS011;2884;47.734;9.244;2023-05-14T11:12:50;8.63;;;5.30;;
5718;SDS011;2884;47.734;9.244;2023-05-14T11:15:19;7.60;;;5.60;;
5718;SDS011;2884;47.734;9.244;2023-05-14T11:17:45;6.03;;;5.43;;
5718;SDS011;2884;47.734;9.244;2023-05-14T11:20:12;7.83;;;5.17;;
5718;SDS011;2884;47.734;9.244;2023-05-14T11:22:38;5.40;;;4.70;;
5718;SDS011;2884;47.734;9.244;2023-05-14T11:25:05;7.17;;;5.43;;
5718;SDS011;2884;47.734;9.244;2023-05-14T11:27:35;5.40;;;4.20;;
5718;SDS011;2884;47.734;9.244;2023-05-14T11:30:02;6.27;;;4.60;;
5718;SDS011;2884;47.734;9.244;2023-05-14T11:32:30;4.67;;;4.00;;
5718;SDS011;2884;47.734;9.244;2023-05-14T11:34:56;4.90;;;4.27;;
5718;SDS011;2884;47.734;9.244;2023-05-14T11:37:22;5.00;;;3.97;;
5718;SDS011;2884;47.734;9.244;2023-05-14T11:39:49;4.80;;;4.23;;
5718;SDS011;2884;47.734;9.244;2023-05-14T11:42:18;5.20;;;4.20;;
5718;SDS011;2884;47.734;9.244;2023-05-14T11:44:45;4.27;;;3.87;;
5718;SDS011;2884;47.734;9.244;2023-05-14T11:47:11;5.97;;;4.37;;
5718;SDS011;2884;47.734;9.244;2023-05-14T11:49:37;7.60;;;4.90;;
5718;SDS011;2884;47.734;9.244;2023-05-14T11:52:03;4.37;;;3.90;;
5718;SDS011;2884;47.734;9.244;2023-05-14T11:54:30;4.43;;;4.07;;
5718;SDS011;2884;47.734;9.244;2023-05-14T11:56:57;5.80;;;5.20;;
5718;SDS011;2884;47.734;9.244;2023-05-14T11:59:24;5.27;;;4.87;;
5718;SDS011;2884;47.734;9.244;2023-05-14T12:01:51;5.70;;;4.33;;
5718;SDS011;2884;47.734;9.244;2023-05-14T12:04:19;4.90;;;4.03;;
5718;SDS011;2884;47.734;9.244;2023-05-14T12:06:52;4.90;;;4.27;;
5718;SDS011;2884;47.734;9.244;2023-05-14T12:09:19;4.73;;;4.33;;
5718;SDS011;2884;47.734;9.244;2023-05-14T12:11:45;4.40;;;4.00;;
5718;SDS011;2884;47.734;9.244;2023-05-14T12:14:15;4.10;;;3.80;;
5718;SDS011;2884;47.734;9.244;2023-05-14T12:16:42;4.83;;;4.33;;
5718;SDS011;2884;47.734;9.244;2023-05-14T12:19:09;6.27;;;3.87;;
5718;SDS011;2884;47.734;9.244;2023-05-14T12:21:37;4.27;;;3.90;;
5718;SDS011;2884;47.734;9.244;2023-05-14T12:24:03;3.80;;;3.50;;
5718;SDS011;2884;47.734;9.244;2023-05-14T12:26:33;5.13;;;3.57;;
5718;SDS011;2884;47.734;9.244;2023-05-14T12:28:59;3.80;;;3.50;;
5718;SDS011;2884;47.734;9.244;2023-05-14T12:31:29;9.17;;;4.30;;
5718;SDS011;2884;47.734;9.244;2023-05-14T12:33:57;4.87;;;3.93;;
5718;SDS011;2884;47.734;9.244;2023-05-14T12:36:22;4.40;;;4.00;;
5718;SDS011;2884;47.734;9.244;2023-05-14T12:38:48;7.00;;;4.10;;
5718;SDS011;2884;47.734;9.244;2023-05-14T12:41:15;4.80;;;4.30;;
5718;SDS011;2884;47.734;9.244;2023-05-14T12:43:41;4.87;;;4.40;;
5718;SDS011;2884;47.734;9.244;2023-05-14T12:46:08;6.17;;;4.80;;
5718;SDS011;2884;47.734;9.244;2023-05-14T12:48:33;6.57;;;4.60;;
5718;SDS011;2884;47.734;9.244;2023-05-14T12:50:59;5.70;;;4.20;;
5718;SDS011;2884;47.734;9.244;2023-05-14T12:53:25;4.77;;;4.37;;
5718;SDS011;2884;47.734;9.244;2023-05-14T12:55:50;4.47;;;4.07;;
5718;SDS011;2884;47.734;9.244;2023-05-14T12:58:16;4.43;;;4.00;;
5718;SDS011;2884;47.734;9.244;2023-05-14T13:00:41;6.20;;;4.53;;
5718;SDS011;2884;47.734;9.244;2023-05-14T13:03:07;4.93;;;4.40;;
5718;SDS011;2884;47.734;9.244;2023-05-14T13:05:32;4.40;;;4.00;;
5718;SDS011;2884;47.734;9.244;2023-05-14T13:07:58;4.97;;;4.47;;
5718;SDS011;2884;47.734;9.244;2023-05-14T13:10:26;4.23;;;3.90;;
5718;SDS011;2884;47.734;9.244;2023-05-14T13:12:51;5.10;;;4.70;;
5718;SDS011;2884;47.734;9.244;2023-05-14T13:15:17;5.13;;;4.60;;
5718;SDS011;2884;47.734;9.244;2023-05-14T13:17:43;4.10;;;3.80;;
5718;SDS011;2884;47.734;9.244;2023-05-14T13:20:08;4.80;;;4.40;;
5718;SDS011;2884;47.734;9.244;2023-05-14T13:22:34;4.47;;;3.70;;
5718;SDS011;2884;47.734;9.244;2023-05-14T13:25:00;5.13;;;4.07;;
5718;SDS011;2884;47.734;9.244;2023-05-14T13:27:25;4.60;;;4.20;;
5718;SDS011;2884;47.734;9.244;2023-05-14T13:29:52;4.30;;;3.90;;
5718;SDS011;2884;47.734;9.244;2023-05-14T13:32:17;7.43;;;3.93;;
5718;SDS011;2884;47.734;9.244;2023-05-14T13:34:43;6.10;;;4.60;;
5718;SDS011;2884;47.734;9.244;2023-05-14T13:37:08;4.73;;;4.33;;
5718;SDS011;2884;47.734;9.244;2023-05-14T13:39:34;4.63;;;4.23;;
5718;SDS011;2884;47.734;9.244;2023-05-14T13:42:00;3.70;;;3.40;;
5718;SDS011;2884;47.734;9.244;2023-05-14T13:44:26;4.50;;;3.30;;
5718;SDS011;2884;47.734;9.244;2023-05-14T13:46:51;3.63;;;3.33;;
5718;SDS011;2884;47.734;9.244;2023-05-14T13:49:17;4.30;;;4.00;;
5718;SDS011;2884;47.734;9.244;2023-05-14T13:51:43;3.50;;;3.30;;
5718;SDS011;2884;47.734;9.244;2023-05-14T13:54:08;3.43;;;3.17;;
5718;SDS011;2884;47.734;9.244;2023-05-14T13:56:34;3.73;;;3.43;;
5718;SDS011;2884;47.734;9.244;2023-05-14T13:58:59;3.90;;;3.30;;
5718;SDS011;2884;47.734;9.244;2023-05-14T14:01:25;4.30;;;3.90;;
5718;SDS011;2884;47.734;9.244;2023-05-14T14:03:51;3.70;;;3.37;;
5718;SDS011;2884;47.734;9.244;2023-05-14T14:06:16;2.97;;;2.77;;
5718;SDS011;2884;47.734;9.244;2023-05-14T14:08:42;3.57;;;3.27;;
5718;SDS011;2884;47.734;9.244;2023-05-14T14:11:07;3.00;;;2.80;;
5718;SDS011;2884;47.734;9.244;2023-05-14T14:13:33;4.77;;;3.13;;
5718;SDS011;2884;47.734;9.244;2023-05-14T14:15:58;3.13;;;2.93;;
5718;SDS011;2884;47.734;9.244;2023-05-14T14:18:24;3.20;;;2.93;;
5718;SDS011;2884;47.734;9.244;2023-05-14T14:20:50;3.27;;;3.07;;
5718;SDS011;2884;47.734;9.244;2023-05-14T14:23:15;3.27;;;2.97;;
5718;SDS011;2884;47.734;9.244;2023-05-14T14:25:41;3.30;;;3.00;;
5718;SDS011;2884;47.734;9.244;2023-05-14T14:28:07;2.80;;;2.60;;
5718;SDS011;2884;47.734;9.244;2023-05-14T14:30:32;3.47;;;2.80;;
5718;SDS011;2884;47.734;9.244;2023-05-14T14:32:58;2.50;;;2.40;;
5718;SDS011;2884;47.734;9.244;2023-05-14T14:35:25;2.17;;;1.97;;
5718;SDS011;2884;47.734;9.244;2023-05-14T14:37:50;3.30;;;2.60;;
5718;SDS011;2884;47.734;9.244;2023-05-14T14:40:17;2.70;;;2.50;;
5718;SDS011;2884;47.734;9.244;2023-05-14T14:42:44;1.83;;;1.67;;
5718;SDS011;2884;47.734;9.244;2023-05-14T14:45:09;4.30;;;2.83;;
5718;SDS011;2884;47.734;9.244;2023-05-14T14:47:35;2.73;;;2.53;;
5718;SDS011;2884;47.734;9.244;2023-05-14T14:50:01;4.20;;;1.83;;
5718;SDS011;2884;47.734;9.244;2023-05-14T14:52:27;1.97;;;1.87;;
5718;SDS011;2884;47.734;9.244;2023-05-14T14:54:53;2.80;;;2.57;;
5718;SDS011;2884;47.734;9.244;2023-05-14T14:57:20;2.30;;;2.20;;
5718;SDS011;2884;47.734;9.244;2023-05-14T14:59:46;2.90;;;2.57;;
5718;SDS011;2884;47.734;9.244;2023-05-14T15:02:11;2.70;;;2.27;;
5718;SDS011;2884;47.734;9.244;2023-05-14T15:04:37;2.80;;;2.47;;
5718;SDS011;2884;47.734;9.244;2023-05-14T15:07:03;2.83;;;2.57;;
5718;SDS011;2884;47.734;9.244;2023-05-14T15:09:29;2.50;;;2.10;;
5718;SDS011;2884;47.734;9.244;2023-05-14T15:11:55;2.57;;;2.37;;
5718;SDS011;2884;47.734;9.244;2023-05-14T15:14:21;2.20;;;2.10;;
5718;SDS011;2884;47.734;9.244;2023-05-14T15:16:46;2.60;;;2.40;;
5718;SDS011;2884;47.734;9.244;2023-05-14T15:19:12;2.60;;;2.50;;
5718;SDS011;2884;47.734;9.244;2023-05-14T15:21:38;3.73;;;2.33;;
5718;SDS011;2884;47.734;9.244;2023-05-14T15:24:03;4.93;;;2.30;;